Time;durP1;ratioP1;P1;durP2;ratioP2;P2;SDS_P1;SDS_P2;PMS_P1;PMS_P2;Temp;Humidity;BMP_temperature;BMP_pressure;BME280_temperature;BME280_humidity;BME280_pressure;Samples;Min_cycle;Max_cycle;Signal;HPM_P1;HPM_P2
2023/01/03 00:00:19;;;;;;;;;;;;;;;-1.68;71.39;99790.16;4929474;29;20490;-70
2023/01/03 00:02:44;;;;;;;;;;;;;;;-1.67;71.23;99787.31;4927579;29;19937;-70
2023/01/03 00:05:10;;;;;;;;;;;;;;;-1.66;71.25;99786.28;4929025;29;19966;-65
2023/01/03 00:07:36;;;;;;;;;;;;;;;-1.68;71.12;99785.66;4932925;29;20385;-65
2023/01/03 00:10:02;;;;;;;;;;;;;;;-1.73;71.35;99786.22;4927622;28;19930;-70
2023/01/03 00:12:31;;;;;;;;;;;;;;;-1.74;71.09;99799.81;4946246;28;19938;-70
2023/01/03 00:14:57;;;;;;;;;;;;;;;-1.77;71.21;99784.97;4947443;28;19930;-70
2023/01/03 00:17:22;;;;;;;;;;;;;;;-1.81;71.13;99778.31;4946079;28;19930;-69
2023/01/03 00:19:48;;;;;;;;;;;;;;;-1.85;71.23;99774.38;4942072;28;20256;-70
2023/01/03 00:22:15;;;;;;;;;;;;;;;-1.84;71.49;99765.28;4947776;28;19937;-70
2023/01/03 00:24:41;;;;;;;;;;;;;;;-1.81;71.76;99764.09;4948300;28;19965;-69
2023/01/03 00:27:07;;;;;;;;;;;;;;;-1.76;71.25;99770.53;4948989;28;19984;-69
2023/01/03 00:29:34;;;;;;;;;;;;;;;-1.78;71.18;99769.06;4937992;28;20021;-70
2023/01/03 00:32:00;;;;;;;;;;;;;;;-1.82;71.12;99762.44;4926099;29;20043;-70
2023/01/03 00:34:26;;;;;;;;;;;;;;;-1.90;71.42;99760.72;4927907;29;20025;-69
2023/01/03 00:36:51;;;;;;;;;;;;;;;-1.92;71.65;99766.28;4925521;29;19946;-69
2023/01/03 00:39:17;;;;;;;;;;;;;;;-1.93;71.77;99766.47;4927482;28;19977;-69
2023/01/03 00:41:43;;;;;;;;;;;;;;;-1.90;71.80;99750.81;4926697;29;20690;-69
2023/01/03 00:44:11;;;;;;;;;;;;;;;-1.85;71.77;99752.91;4925905;29;19990;-65
2023/01/03 00:46:38;;;;;;;;;;;;;;;-1.82;71.66;99744.47;4927785;29;19993;-65
2023/01/03 00:49:06;;;;;;;;;;;;;;;-1.80;71.53;99733.56;4926151;29;19931;-66
2023/01/03 00:51:33;;;;;;;;;;;;;;;-1.79;71.53;99732.56;4925466;29;19958;-65
2023/01/03 00:53:59;;;;;;;;;;;;;;;-1.78;71.48;99729.69;4925136;29;19931;-65
2023/01/03 00:56:26;;;;;;;;;;;;;;;-1.75;71.49;99723.94;4923706;29;19931;-65
2023/01/03 00:58:52;;;;;;;;;;;;;;;-1.71;71.33;99722.50;4929154;29;19930;-65
2023/01/03 01:01:19;;;;;;;;;;;;;;;-1.65;71.24;99723.56;4945298;28;20317;-66
2023/01/03 01:03:47;;;;;;;;;;;;;;;-1.63;70.88;99726.06;4945192;28;19941;-67
2023/01/03 01:06:13;;;;;;;;;;;;;;;-1.66;70.94;99726.44;4946448;28;19930;-66
2023/01/03 01:08:39;;;;;;;;;;;;;;;-1.65;71.01;99723.56;4943428;28;20037;-65
2023/01/03 01:11:05;;;;;;;;;;;;;;;-1.66;70.94;99718.41;4945082;28;20057;-66
2023/01/03 01:13:32;;;;;;;;;;;;;;;-1.66;70.87;99716.56;4946970;28;19978;-65
2023/01/03 01:15:59;;;;;;;;;;;;;;;-1.68;71.10;99709.72;4947257;28;20409;-65
2023/01/03 01:18:25;;;;;;;;;;;;;;;-1.67;71.24;99709.53;4946504;28;19961;-66
2023/01/03 01:20:52;;;;;;;;;;;;;;;-1.66;70.95;99705.00;4943193;28;19973;-66
2023/01/03 01:23:18;;;;;;;;;;;;;;;-1.64;70.89;99698.41;4947447;28;20138;-66
2023/01/03 01:25:44;;;;;;;;;;;;;;;-1.61;70.56;99689.97;4948590;28;20486;-65
2023/01/03 01:28:09;;;;;;;;;;;;;;;-1.64;70.57;99673.44;4931235;28;19930;-65
2023/01/03 01:30:35;;;;;;;;;;;;;;;-1.68;70.49;99665.00;4947876;28;19930;-65
2023/01/03 01:33:01;;;;;;;;;;;;;;;-1.68;70.87;99656.09;4947487;28;20503;-65
2023/01/03 01:35:27;;;;;;;;;;;;;;;-1.69;70.96;99649.94;4947211;28;19958;-65
2023/01/03 01:37:56;;;;;;;;;;;;;;;-1.68;71.11;99645.38;4946191;28;19931;-65
2023/01/03 01:40:23;;;;;;;;;;;;;;;-1.62;71.28;99650.78;4958314;28;19930;-65
2023/01/03 01:45:34;;;;;;;;;;;;;;;-1.55;71.03;99642.75;4928605;29;20535;-65
2023/01/03 01:48:01;;;;;;;;;;;;;;;-1.50;70.57;99636.81;4926841;29;19954;-65
2023/01/03 01:50:30;;;;;;;;;;;;;;;-1.51;70.47;99630.59;4929170;29;19937;-66
2023/01/03 01:53:00;;;;;;;;;;;;;;;-1.53;70.73;99629.97;4929501;29;19931;-64
2023/01/03 01:55:29;;;;;;;;;;;;;;;-1.47;70.78;99618.47;4929197;29;19930;-65
2023/01/03 01:57:55;;;;;;;;;;;;;;;-1.48;70.60;99622.19;4927499;29;19935;-65
2023/01/03 02:00:21;;;;;;;;;;;;;;;-1.49;70.67;99614.31;4928525;29;19931;-66
2023/01/03 02:02:48;;;;;;;;;;;;;;;-1.48;70.87;99602.56;4928536;29;19937;-65
2023/01/03 02:05:15;;;;;;;;;;;;;;;-1.50;70.78;99608.13;4927622;29;20400;-64
2023/01/03 02:07:42;;;;;;;;;;;;;;;-1.51;70.71;99589.56;4928343;29;19930;-64
2023/01/03 02:10:09;;;;;;;;;;;;;;;-1.48;70.46;99587.31;4929144;29;20362;-64
2023/01/03 02:15:28;;;;;;;;;;;;;;;-1.46;70.36;99587.94;4950443;28;19954;-65
2023/01/03 02:18:00;;;;;;;;;;;;;;;-1.40;69.92;99583.63;4931195;29;19935;-65
2023/01/03 02:20:42;;;;;;;;;;;;;;;-1.45;69.52;99576.19;4927397;29;20018;-65
2023/01/03 02:23:25;;;;;;;;;;;;;;;-1.52;69.60;99561.09;4930906;29;19931;-65
2023/01/03 02:26:05;;;;;;;;;;;;;;;-1.58;69.82;99549.31;4929352;29;19986;-65
2023/01/03 02:28:46;;;;;;;;;;;;;;;-1.53;69.39;99548.72;4926082;29;19979;-65
2023/01/03 02:31:16;;;;;;;;;;;;;;;-1.53;69.43;99546.84;4928704;29;19973;-65
2023/01/03 02:33:45;;;;;;;;;;;;;;;-1.52;69.37;99537.78;4928388;29;19930;-65
2023/01/03 02:36:15;;;;;;;;;;;;;;;-1.55;69.45;99532.81;4928522;29;19930;-65
2023/01/03 02:38:47;;;;;;;;;;;;;;;-1.63;69.59;99514.25;4926913;29;19935;-64
2023/01/03 02:41:18;;;;;;;;;;;;;;;-1.64;69.51;99513.41;4927950;29;19931;-65
2023/01/03 02:43:48;;;;;;;;;;;;;;;-1.65;69.68;99502.88;4927595;29;19930;-65
2023/01/03 02:46:19;;;;;;;;;;;;;;;-1.61;69.41;99506.81;4926323;29;19981;-65
2023/01/03 02:48:47;;;;;;;;;;;;;;;-1.63;69.37;99503.50;4929710;29;19931;-65
2023/01/03 02:51:16;;;;;;;;;;;;;;;-1.57;69.52;99498.16;4929693;29;19977;-65
2023/01/03 02:53:44;;;;;;;;;;;;;;;-1.52;69.14;99497.53;4930432;29;19953;-65
2023/01/03 02:56:11;;;;;;;;;;;;;;;-1.47;69.01;99494.25;4929328;28;19970;-65
2023/01/03 02:58:38;;;;;;;;;;;;;;;-1.56;68.81;99496.31;4944724;28;19930;-65
2023/01/03 03:01:05;;;;;;;;;;;;;;;-1.50;68.40;99505.41;4949251;28;20327;-66
2023/01/03 03:03:35;;;;;;;;;;;;;;;-1.56;68.46;99504.34;4948725;28;20421;-66
2023/01/03 03:06:05;;;;;;;;;;;;;;;-1.55;68.66;99503.31;4937269;28;20236;-65
2023/01/03 03:08:31;;;;;;;;;;;;;;;-1.72;69.74;99497.47;4936755;29;19931;-65
2023/01/03 03:13:44;;;;;;;;;;;;;;;-2.01;72.73;99496.78;4929703;29;19935;-65
2023/01/03 03:16:13;;;;;;;;;;;;;;;-2.06;73.67;99492.00;4929839;29;19931;-65
2023/01/03 03:18:44;;;;;;;;;;;;;;;-2.11;74.98;99497.13;4930136;29;19931;-65
2023/01/03 03:26:46;;;;;;;;;;;;;;;-2.34;77.92;99470.63;4930737;29;19977;-65
2023/01/03 03:29:14;;;;;;;;;;;;;;;-2.35;78.32;99461.78;4927526;29;20059;-65
2023/01/03 03:31:41;;;;;;;;;;;;;;;-2.28;78.78;99459.16;4926365;29;19931;-65
2023/01/03 03:34:10;;;;;;;;;;;;;;;-2.26;79.31;99446.38;4926771;29;19997;-65
2023/01/03 03:36:39;;;;;;;;;;;;;;;-2.31;79.84;99449.66;4928209;29;20407;-65
2023/01/03 03:39:06;;;;;;;;;;;;;;;-2.32;80.26;99450.66;4925499;28;19931;-65
2023/01/03 03:47:25;;;;;;;;;;;;;;;-2.42;81.94;99443.00;4944687;28;20508;-65
2023/01/03 03:49:54;;;;;;;;;;;;;;;-2.40;82.42;99433.94;4944981;28;19930;-65
2023/01/03 03:52:24;;;;;;;;;;;;;;;-2.40;82.48;99420.56;4941568;28;19973;-64
2023/01/03 03:54:52;;;;;;;;;;;;;;;-2.36;82.83;99416.44;4944919;28;19930;-69
2023/01/03 03:57:23;;;;;;;;;;;;;;;-2.31;82.87;99414.81;4944991;28;19930;-68
2023/01/03 03:59:59;;;;;;;;;;;;;;;-2.22;82.91;99398.59;4944570;28;19937;-69
2023/01/03 04:02:26;;;;;;;;;;;;;;;-2.17;83.05;99394.28;4943131;28;19962;-69
2023/01/03 04:04:56;;;;;;;;;;;;;;;-2.12;82.89;99384.81;4942465;28;19934;-69
2023/01/03 04:07:22;;;;;;;;;;;;;;;-2.11;82.94;99379.22;4944481;28;19930;-64
2023/01/03 04:09:48;;;;;;;;;;;;;;;-2.10;82.84;99372.03;4927382;29;19993;-65
2023/01/03 04:12:13;;;;;;;;;;;;;;;-2.11;83.20;99359.66;4958062;28;19961;-65
2023/01/03 04:14:39;;;;;;;;;;;;;;;-2.14;83.34;99355.53;4959561;28;19931;-65
2023/01/03 04:17:05;;;;;;;;;;;;;;;-2.18;83.41;99359.66;4946168;28;19957;-65
2023/01/03 04:19:30;;;;;;;;;;;;;;;-2.22;83.80;99355.72;4947812;28;19941;-65
2023/01/03 04:21:58;;;;;;;;;;;;;;;-2.21;83.81;99341.31;4944307;28;20549;-65
2023/01/03 04:24:24;;;;;;;;;;;;;;;-2.17;84.28;99338.03;4946287;28;20133;-64
2023/01/03 04:26:49;;;;;;;;;;;;;;;-2.16;84.21;99334.31;4945599;28;19930;-65
2023/01/03 04:29:15;;;;;;;;;;;;;;;-2.08;84.26;99319.06;4947306;28;19937;-65
2023/01/03 04:31:41;;;;;;;;;;;;;;;-2.06;84.06;99296.41;4946150;28;20218;-65
2023/01/03 04:34:07;;;;;;;;;;;;;;;-2.04;84.23;99291.66;4943671;28;19958;-65
2023/01/03 04:36:32;;;;;;;;;;;;;;;-2.02;84.32;99280.75;4945696;28;20018;-65
2023/01/03 04:39:00;;;;;;;;;;;;;;;-1.98;84.55;99286.50;4945609;28;19941;-65
2023/01/03 04:41:25;;;;;;;;;;;;;;;-1.97;84.59;99282.81;4947958;28;19954;-65
2023/01/03 04:44:00;;;;;;;;;;;;;;;-1.97;84.50;99274.75;4945975;28;19931;-64
2023/01/03 04:46:26;;;;;;;;;;;;;;;-1.98;84.90;99257.03;4947659;28;19934;-65
2023/01/03 04:48:52;;;;;;;;;;;;;;;-2.00;85.07;99246.53;4948235;28;19930;-64
2023/01/03 04:51:18;;;;;;;;;;;;;;;-2.04;85.09;99254.16;4945081;28;19931;-65
2023/01/03 04:53:43;;;;;;;;;;;;;;;-2.07;85.41;99249.22;4915294;28;19930;-64
2023/01/03 04:56:11;;;;;;;;;;;;;;;-2.05;85.69;99236.44;4944925;28;19941;-65
2023/01/03 04:58:36;;;;;;;;;;;;;;;-2.03;85.64;99222.81;4945836;28;19941;-64
2023/01/03 05:01:03;;;;;;;;;;;;;;;-2.06;85.56;99221.38;4940140;28;19930;-66
2023/01/03 05:03:29;;;;;;;;;;;;;;;-2.11;85.76;99215.00;4930150;29;19931;-64
2023/01/03 05:05:57;;;;;;;;;;;;;;;-2.12;86.08;99203.44;4932708;29;19954;-64
2023/01/03 05:08:23;;;;;;;;;;;;;;;-2.16;86.01;99204.88;4937183;28;20416;-66
2023/01/03 05:10:50;;;;;;;;;;;;;;;-2.19;86.39;99192.72;4948713;29;19937;-66
2023/01/03 05:13:17;;;;;;;;;;;;;;;-2.17;86.58;99188.00;4947264;29;20373;-65
2023/01/03 05:15:43;;;;;;;;;;;;;;;-2.12;86.59;99195.41;4941764;29;20021;-65
2023/01/03 05:18:08;;;;;;;;;;;;;;;-2.11;86.75;99183.66;4927583;29;20394;-65
2023/01/03 05:26:05;;;;;;;;;;;;;;;-2.06;87.10;99161.59;4927517;29;19961;-69
2023/01/03 05:28:32;;;;;;;;;;;;;;;-2.03;86.87;99159.34;4926334;29;20402;-70
2023/01/03 05:30:58;;;;;;;;;;;;;;;-2.01;86.94;99153.78;4926775;29;19934;-69
2023/01/03 05:33:24;;;;;;;;;;;;;;;-1.97;87.12;99148.81;4926669;29;20332;-65
2023/01/03 05:35:50;;;;;;;;;;;;;;;-1.94;86.89;99143.88;4944041;28;19930;-64
2023/01/03 05:38:16;;;;;;;;;;;;;;;-1.92;86.97;99139.13;4933631;29;20259;-66
2023/01/03 05:40:42;;;;;;;;;;;;;;;-1.89;87.06;99136.00;4927104;29;19931;-65
2023/01/03 05:43:07;;;;;;;;;;;;;;;-1.84;87.06;99131.91;4928130;29;20465;-65
2023/01/03 05:45:35;;;;;;;;;;;;;;;-1.94;86.90;99113.59;4925552;29;19931;-65
2023/01/03 05:48:01;;;;;;;;;;;;;;;-1.82;87.34;99135.19;4927095;29;19935;-65
2023/01/03 05:50:26;;;;;;;;;;;;;;;-1.80;87.29;99127.75;4929164;29;19993;-65
2023/01/03 05:52:52;;;;;;;;;;;;;;;-1.76;87.52;99131.66;4927687;29;19938;-65
2023/01/03 05:55:18;;;;;;;;;;;;;;;-1.77;87.41;99140.75;4927819;29;19931;-65
2023/01/03 05:57:46;;;;;;;;;;;;;;;-1.87;87.23;99111.69;4927235;29;19953;-65
2023/01/03 06:00:12;;;;;;;;;;;;;;;-1.77;87.53;99130.03;4927223;29;19934;-65
2023/01/03 06:02:39;;;;;;;;;;;;;;;-1.75;87.54;99107.34;4925622;29;20351;-65
2023/01/03 06:05:05;;;;;;;;;;;;;;;-1.79;87.72;99094.56;4928523;29;20447;-64
2023/01/03 06:07:32;;;;;;;;;;;;;;;-1.86;87.77;99082.00;4928239;29;20029;-65
2023/01/03 06:09:58;;;;;;;;;;;;;;;-1.88;87.88;99072.53;4918954;29;19990;-68
2023/01/03 06:12:24;;;;;;;;;;;;;;;-1.88;88.37;99057.25;4930720;28;19934;-69
2023/01/03 06:14:52;;;;;;;;;;;;;;;-1.92;88.41;99061.41;4879285;28;1908930;-69
2023/01/03 06:20:03;;;;;;;;;;;;;;;-2.02;88.78;99058.38;4948985;28;19935;-68
2023/01/03 06:22:29;;;;;;;;;;;;;;;-2.06;89.14;99063.31;4943600;28;20029;-69
2023/01/03 06:24:54;;;;;;;;;;;;;;;-2.06;89.52;99051.75;4938171;28;20465;-69
2023/01/03 06:27:20;;;;;;;;;;;;;;;-2.04;89.51;99050.53;4928887;29;20030;-69
2023/01/03 06:29:46;;;;;;;;;;;;;;;-2.01;89.64;99044.72;4928339;29;20033;-69
2023/01/03 06:32:12;;;;;;;;;;;;;;;-1.98;89.46;99037.31;4929796;29;19963;-69
2023/01/03 06:34:37;;;;;;;;;;;;;;;-1.97;89.65;99020.19;4930431;29;19934;-69
2023/01/03 06:37:05;;;;;;;;;;;;;;;-1.94;89.52;99006.41;4938142;28;19937;-65
2023/01/03 06:39:32;;;;;;;;;;;;;;;-1.95;89.45;98994.84;4937757;28;20359;-65
2023/01/03 06:41:57;;;;;;;;;;;;;;;-1.96;89.50;98998.56;4926345;29;19938;-65
2023/01/03 06:44:23;;;;;;;;;;;;;;;-2.03;89.67;98992.38;4923875;29;19930;-64
2023/01/03 06:55:03;;;;;;;;;;;;;;;-1.69;89.44;99001.13;4927303;29;19986;-65
2023/01/03 06:57:29;;;;;;;;;;;;;;;-1.61;89.54;98997.38;4926034;29;19935;-65
2023/01/03 06:59:55;;;;;;;;;;;;;;;-1.57;89.30;98979.81;4926741;29;19938;-65
2023/01/03 07:02:21;;;;;;;;;;;;;;;-1.50;89.40;98983.25;4928137;28;19938;-65
2023/01/03 07:04:46;;;;;;;;;;;;;;;-1.47;89.14;98976.66;4946961;28;20478;-65
2023/01/03 07:07:12;;;;;;;;;;;;;;;-1.48;88.94;98988.41;4932852;29;19965;-65
2023/01/03 07:09:39;;;;;;;;;;;;;;;-1.45;89.12;98986.13;4928936;28;20595;-65
2023/01/03 07:14:49;;;;;;;;;;;;;;;-1.43;88.77;98972.50;4942222;28;20402;-65
2023/01/03 07:17:15;;;;;;;;;;;;;;;-1.37;88.53;98960.09;4928928;29;19931;-65
2023/01/03 07:19:41;;;;;;;;;;;;;;;-1.38;88.33;98953.06;4934068;28;19930;-65
2023/01/03 07:22:06;;;;;;;;;;;;;;;-1.43;88.25;98933.09;4948065;28;19930;-65
2023/01/03 07:24:32;;;;;;;;;;;;;;;-1.45;88.19;98934.34;4941233;28;20013;-65
2023/01/03 07:26:59;;;;;;;;;;;;;;;-1.44;88.40;98927.94;4928459;28;19944;-65
2023/01/03 07:29:26;;;;;;;;;;;;;;;-1.44;88.37;98920.72;4926504;29;19942;-66
2023/01/03 07:31:51;;;;;;;;;;;;;;;-1.45;88.40;98926.31;4933939;28;19935;-66
2023/01/03 07:34:18;;;;;;;;;;;;;;;-1.44;88.07;98914.53;4932113;28;19938;-66
2023/01/03 07:36:43;;;;;;;;;;;;;;;-1.46;88.18;98905.88;4944890;28;19930;-65
2023/01/03 07:39:09;;;;;;;;;;;;;;;-1.46;88.10;98903.22;4946908;28;19937;-66
2023/01/03 07:44:20;;;;;;;;;;;;;;;-1.51;88.15;98893.13;4941539;28;19992;-65
2023/01/03 07:46:46;;;;;;;;;;;;;;;-1.52;88.11;98894.16;4942794;28;19934;-66
2023/01/03 07:49:12;;;;;;;;;;;;;;;-1.48;87.97;98879.31;4941017;28;20045;-65
2023/01/03 07:51:37;;;;;;;;;;;;;;;-1.51;88.08;98865.50;4944036;28;19937;-65
2023/01/03 07:54:03;;;;;;;;;;;;;;;-1.47;87.65;98878.25;4937836;28;19940;-65
2023/01/03 07:56:29;;;;;;;;;;;;;;;-1.44;87.91;98875.13;4930958;28;19986;-65
2023/01/03 07:58:54;;;;;;;;;;;;;;;-1.41;87.89;98865.00;4927529;29;20429;-65
2023/01/03 08:01:22;;;;;;;;;;;;;;;-1.35;87.63;98864.97;4908360;29;20029;-65
2023/01/03 08:03:49;;;;;;;;;;;;;;;-1.32;87.39;98859.16;4928166;29;20201;-65
2023/01/03 08:06:16;;;;;;;;;;;;;;;-1.26;87.13;98853.94;4927438;28;19931;-65
2023/01/03 08:08:42;;;;;;;;;;;;;;;-1.24;87.20;98847.31;4928188;29;20397;-65
2023/01/03 08:13:54;;;;;;;;;;;;;;;-1.22;86.71;98820.28;4927243;28;19998;-69
2023/01/03 08:16:19;;;;;;;;;;;;;;;-1.13;86.69;98818.94;4927821;29;20529;-69
2023/01/03 08:18:47;;;;;;;;;;;;;;;-1.09;86.50;98816.63;4943670;28;19931;-70
2023/01/03 08:21:13;;;;;;;;;;;;;;;-1.06;86.42;98814.34;4944022;28;19934;-70
2023/01/03 08:23:39;;;;;;;;;;;;;;;-1.04;86.06;98798.81;4945312;28;19938;-65
2023/01/03 08:26:06;;;;;;;;;;;;;;;-0.98;86.02;98801.66;4945279;28;19934;-70
2023/01/03 08:28:32;;;;;;;;;;;;;;;-0.98;85.97;98788.22;4940072;28;20042;-69
2023/01/03 08:30:59;;;;;;;;;;;;;;;-0.96;85.89;98792.34;4935434;28;20025;-69
2023/01/03 08:33:27;;;;;;;;;;;;;;;-0.97;85.81;98787.19;4594643;28;9999983;-70
2023/01/03 08:35:56;;;;;;;;;;;;;;;-1.04;85.85;98771.16;4932359;28;20345;-70
2023/01/03 08:38:24;;;;;;;;;;;;;;;-1.09;85.88;98773.69;4933056;28;20432;-70
2023/01/03 08:40:50;;;;;;;;;;;;;;;-1.10;86.22;98761.34;4929295;28;20355;-70
2023/01/03 08:43:16;;;;;;;;;;;;;;;-1.11;86.24;98759.69;4600443;28;9999787;-70
2023/01/03 08:45:42;;;;;;;;;;;;;;;-1.10;86.10;98755.97;4952866;28;19942;-69
2023/01/03 08:48:09;;;;;;;;;;;;;;;-1.07;86.21;98752.81;4945393;28;20021;-70
2023/01/03 08:50:35;;;;;;;;;;;;;;;-1.05;86.05;98745.38;4952858;28;20020;-70
2023/01/03 08:53:04;;;;;;;;;;;;;;;-1.06;86.15;98746.41;4951868;28;19958;-69
2023/01/03 08:55:30;;;;;;;;;;;;;;;-1.08;86.36;98732.41;4946046;28;20032;-69
2023/01/03 08:57:58;;;;;;;;;;;;;;;-1.04;86.16;98733.59;4952533;28;20375;-70
2023/01/03 09:00:24;;;;;;;;;;;;;;;-0.97;86.08;98714.72;4955180;28;20033;-69
2023/01/03 09:02:50;;;;;;;;;;;;;;;-0.99;nan;98709.59;4951097;28;20095;-70
2023/01/03 09:05:15;;;;;;;;;;;;;;;-0.94;86.28;98715.09;4948266;28;19937;-69
2023/01/03 09:07:41;;;;;;;;;;;;;;;-0.93;86.22;98703.31;4956233;28;19936;-69
2023/01/03 09:10:09;;;;;;;;;;;;;;;-0.91;86.30;98695.06;4953964;28;19941;-69
2023/01/03 09:12:35;;;;;;;;;;;;;;;-0.98;86.52;98688.94;4956242;28;19930;-69
2023/01/03 09:15:01;;;;;;;;;;;;;;;-1.01;86.96;98682.19;4951939;28;20413;-69
2023/01/03 09:17:28;;;;;;;;;;;;;;;-1.02;86.96;98684.03;4954894;28;20207;-68
2023/01/03 09:19:54;;;;;;;;;;;;;;;-0.98;87.41;98670.16;4929717;28;19938;-70
2023/01/03 09:22:22;;;;;;;;;;;;;;;-0.88;87.52;98668.56;4950732;28;19981;-70
2023/01/03 09:24:48;;;;;;;;;;;;;;;-0.84;87.33;98662.75;4959058;28;20283;-71
2023/01/03 09:27:15;;;;;;;;;;;;;;;-0.83;87.18;98675.94;4954834;28;19989;-70
2023/01/03 09:29:41;;;;;;;;;;;;;;;-0.81;87.28;98668.47;4953991;28;20345;-70
2023/01/03 09:32:06;;;;;;;;;;;;;;;-0.79;87.07;98662.88;4956763;28;19934;-69
2023/01/03 09:34:32;;;;;;;;;;;;;;;-0.83;87.33;98651.78;4953745;28;20432;-70
2023/01/03 09:37:03;;;;;;;;;;;;;;;-0.83;87.54;98646.41;4949208;28;20110;-65
2023/01/03 09:39:28;;;;;;;;;;;;;;;-0.85;87.45;98645.81;4954879;28;19985;-66
2023/01/03 09:44:41;;;;;;;;;;;;;;;-0.90;87.69;98625.03;4949104;28;20023;-65
2023/01/03 09:47:14;;;;;;;;;;;;;;;-0.86;87.92;98622.72;4956938;28;19930;-65
2023/01/03 09:49:39;;;;;;;;;;;;;;;-0.88;87.76;98614.06;4955130;28;20052;-66
2023/01/03 10:06:19;;;;;;;;;;;;;;;-1.03;89.88;98580.44;4957856;28;19940;-65
2023/01/03 10:08:51;;;;;;;;;;;;;;;-1.08;90.11;98582.16;4956949;28;19985;-66
2023/01/03 10:11:20;;;;;;;;;;;;;;;-1.17;90.33;98585.16;4932845;28;19930;-70
2023/01/03 10:13:54;;;;;;;;;;;;;;;-1.18;90.94;98580.03;4952084;28;20406;-69
2023/01/03 10:16:23;;;;;;;;;;;;;;;-1.16;91.45;98572.56;4953449;28;19941;-69
2023/01/03 10:19:07;;;;;;;;;;;;;;;-1.13;91.23;98561.38;4954182;28;19953;-65
2023/01/03 10:21:39;;;;;;;;;;;;;;;-1.09;91.31;98549.16;4937568;28;19941;-69
2023/01/03 10:24:13;;;;;;;;;;;;;;;-1.04;91.33;98525.13;4955417;28;19936;-69
2023/01/03 10:26:39;;;;;;;;;;;;;;;-1.04;91.23;98519.75;4956366;28;19937;-69
2023/01/03 10:29:04;;;;;;;;;;;;;;;-1.00;91.41;98523.59;4952028;28;20386;-69
2023/01/03 10:31:39;;;;;;;;;;;;;;;-0.89;91.52;98507.78;4950831;28;19938;-65
2023/01/03 10:34:05;;;;;;;;;;;;;;;-0.82;91.27;98515.72;4953328;28;20029;-65
2023/01/03 10:36:30;;;;;;;;;;;;;;;-0.78;91.23;98533.81;4955471;28;20037;-65
2023/01/03 10:39:03;;;;;;;;;;;;;;;-0.75;91.10;98525.28;4952604;28;19985;-65
2023/01/03 10:41:30;;;;;;;;;;;;;;;-0.82;91.12;98505.78;4952286;28;19930;-65
2023/01/03 10:43:57;;;;;;;;;;;;;;;-0.72;91.22;98510.56;4956344;28;19936;-65
2023/01/03 10:46:25;;;;;;;;;;;;;;;-0.77;90.93;98518.50;4958348;28;20421;-65
2023/01/03 10:48:53;;;;;;;;;;;;;;;-0.81;91.13;98520.03;4959760;28;19930;-65
2023/01/03 10:51:25;;;;;;;;;;;;;;;-0.83;91.23;98514.09;4957136;28;19930;-66
2023/01/03 10:53:52;;;;;;;;;;;;;;;-0.74;91.61;98508.13;4951419;28;19938;-64
2023/01/03 10:56:18;;;;;;;;;;;;;;;-0.66;91.52;98515.03;4951538;28;19934;-66
2023/01/03 10:58:44;;;;;;;;;;;;;;;-0.64;91.41;98491.44;4960033;28;19953;-65
2023/01/03 11:01:20;;;;;;;;;;;;;;;-0.57;91.41;98477.91;4952774;28;19931;-65
2023/01/03 11:04:05;;;;;;;;;;;;;;;-0.50;91.24;98492.00;4932736;28;19931;-71
2023/01/03 11:06:32;;;;;;;;;;;;;;;-0.47;91.28;98488.88;4933967;28;20008;-69
2023/01/03 11:09:00;;;;;;;;;;;;;;;-0.45;91.25;98478.72;4941675;28;19931;-69
2023/01/03 11:11:28;;;;;;;;;;;;;;;-0.45;91.00;98462.59;4948767;28;20322;-69
2023/01/03 11:14:04;;;;;;;;;;;;;;;-0.41;91.10;98454.06;4927518;28;19941;-70
2023/01/03 11:16:31;;;;;;;;;;;;;;;-0.42;91.01;98445.19;4949571;28;19930;-69
2023/01/03 11:19:00;;;;;;;;;;;;;;;-0.40;91.16;98445.75;4951333;28;20105;-70
2023/01/03 11:21:30;;;;;;;;;;;;;;;-0.33;91.37;98424.13;4954653;28;20449;-70
2023/01/03 11:24:02;;;;;;;;;;;;;;;-0.30;91.30;98437.13;4957830;28;19930;-70
2023/01/03 11:26:39;;;;;;;;;;;;;;;-0.26;91.25;98427.53;4950341;28;19939;-70
2023/01/03 11:29:23;;;;;;;;;;;;;;;-0.24;91.24;98430.78;4954234;28;20030;-70
2023/01/03 11:31:51;;;;;;;;;;;;;;;-0.19;91.29;98435.47;4946811;28;19978;-70
2023/01/03 11:34:33;;;;;;;;;;;;;;;-0.15;91.22;98423.16;4957628;28;19937;-70
2023/01/03 11:37:06;;;;;;;;;;;;;;;-0.06;91.35;98419.06;4951907;28;19962;-70
2023/01/03 11:39:42;;;;;;;;;;;;;;;0.02;90.98;98420.56;4951255;28;19934;-70
2023/01/03 11:42:15;;;;;;;;;;;;;;;0.05;90.71;98420.06;4609825;28;10000684;-70
2023/01/03 11:44:47;;;;;;;;;;;;;;;0.10;90.96;98416.66;4948595;28;19930;-70
2023/01/03 11:47:19;;;;;;;;;;;;;;;0.16;91.29;98414.88;4951154;28;19938;-70
2023/01/03 11:49:51;;;;;;;;;;;;;;;0.19;91.16;98414.41;4940920;28;19935;-70
2023/01/03 11:52:21;;;;;;;;;;;;;;;0.18;91.49;98410.09;4946108;28;20019;-70
2023/01/03 11:55:15;;;;;;;;;;;;;;;0.23;91.43;98415.56;4951211;28;19930;-70
2023/01/03 11:57:47;;;;;;;;;;;;;;;0.26;91.55;98415.91;4950349;28;19930;-70
2023/01/03 12:00:16;;;;;;;;;;;;;;;0.32;91.79;98407.91;4951214;28;19935;-65
2023/01/03 12:02:59;;;;;;;;;;;;;;;0.35;91.53;98402.88;4953270;28;19930;-65
2023/01/03 12:05:38;;;;;;;;;;;;;;;0.42;91.26;98394.66;4939295;28;19961;-65
2023/01/03 12:08:13;;;;;;;;;;;;;;;0.39;91.45;98387.88;4952873;28;20378;-67
2023/01/03 12:10:47;;;;;;;;;;;;;;;0.40;91.32;98388.72;4939198;28;20303;-71
2023/01/03 12:13:22;;;;;;;;;;;;;;;0.41;91.40;98384.97;4945892;28;20390;-66
2023/01/03 12:15:55;;;;;;;;;;;;;;;0.41;91.30;98383.06;4949680;28;19938;-66
2023/01/03 12:18:24;;;;;;;;;;;;;;;0.46;91.63;98379.66;4956325;28;20317;-66
2023/01/03 12:20:54;;;;;;;;;;;;;;;0.50;91.44;98372.72;4950751;28;19941;-66
2023/01/03 12:23:25;;;;;;;;;;;;;;;0.49;91.57;98381.06;4964588;28;20559;-65
2023/01/03 12:25:53;;;;;;;;;;;;;;;0.51;91.91;98379.72;4953996;28;19937;-65
2023/01/03 12:28:22;;;;;;;;;;;;;;;0.57;92.11;98372.56;4949903;28;19936;-66
2023/01/03 12:30:51;;;;;;;;;;;;;;;0.63;92.08;98373.47;4954933;28;19930;-66
2023/01/03 12:33:23;;;;;;;;;;;;;;;0.66;92.29;98365.72;4938224;28;19930;-65
2023/01/03 12:35:53;;;;;;;;;;;;;;;0.75;92.85;98373.38;4953396;28;19941;-66
2023/01/03 12:38:24;;;;;;;;;;;;;;;0.84;93.34;98374.59;4952091;28;19930;-67
2023/01/03 12:40:53;;;;;;;;;;;;;;;0.87;93.32;98351.78;4955115;28;19988;-66
2023/01/03 12:43:25;;;;;;;;;;;;;;;0.93;93.36;98346.19;4945154;28;20207;-66
2023/01/03 12:45:52;;;;;;;;;;;;;;;0.98;93.27;98346.28;4950005;28;19954;-67
2023/01/03 12:48:33;;;;;;;;;;;;;;;1.02;93.26;98345.78;4949291;28;19977;-67
2023/01/03 12:50:59;;;;;;;;;;;;;;;1.07;93.19;98364.69;4925068;28;20019;-67
2023/01/03 12:53:31;;;;;;;;;;;;;;;1.10;93.16;98361.53;4949315;28;19930;-67
2023/01/03 12:56:06;;;;;;;;;;;;;;;1.14;92.88;98373.44;4947281;28;20508;-66
2023/01/03 12:58:37;;;;;;;;;;;;;;;1.15;92.92;98372.38;4949288;28;19988;-66
2023/01/03 13:01:05;;;;;;;;;;;;;;;1.19;92.89;98368.09;4952526;28;20385;-66
2023/01/03 13:03:34;;;;;;;;;;;;;;;1.11;93.14;98347.00;4937943;28;20519;-66
2023/01/03 13:06:03;;;;;;;;;;;;;;;1.23;93.24;98357.66;4949698;28;19930;-66
2023/01/03 13:08:33;;;;;;;;;;;;;;;1.25;93.47;98359.06;4955334;28;20445;-66
2023/01/03 13:11:00;;;;;;;;;;;;;;;1.28;93.50;98365.81;4916759;28;19931;-66
2023/01/03 13:13:26;;;;;;;;;;;;;;;1.30;93.66;98360.19;4954390;28;19930;-68
2023/01/03 13:15:52;;;;;;;;;;;;;;;1.34;93.93;98364.81;4940564;28;19939;-67
2023/01/03 13:18:30;;;;;;;;;;;;;;;1.41;94.12;98351.16;4952963;28;19937;-67
2023/01/03 13:20:56;;;;;;;;;;;;;;;1.46;94.21;98367.38;4956670;28;19941;-67
2023/01/03 13:23:29;;;;;;;;;;;;;;;1.52;94.37;98357.50;4955815;28;19930;-66
2023/01/03 13:26:19;;;;;;;;;;;;;;;1.59;94.35;98360.00;4956088;28;19989;-66
2023/01/03 13:28:47;;;;;;;;;;;;;;;1.69;94.55;98360.94;4938626;28;19930;-66
2023/01/03 13:31:43;;;;;;;;;;;;;;;1.81;94.37;98363.50;4954111;28;19930;-67
2023/01/03 13:34:26;;;;;;;;;;;;;;;1.88;94.55;98366.00;4953977;28;20158;-66
2023/01/03 13:37:25;;;;;;;;;;;;;;;1.98;94.63;98370.66;4947165;28;20414;-66
2023/01/03 13:40:08;;;;;;;;;;;;;;;2.03;94.43;98368.06;4959674;28;20451;-66
2023/01/03 13:42:35;;;;;;;;;;;;;;;2.10;94.79;98371.34;4960250;28;19930;-67
2023/01/03 13:45:19;;;;;;;;;;;;;;;2.10;94.81;98373.22;4951982;28;20456;-66
2023/01/03 13:47:47;;;;;;;;;;;;;;;2.09;95.32;98366.19;4933866;28;19937;-66
2023/01/03 13:50:20;;;;;;;;;;;;;;;2.09;95.52;98376.97;4952656;28;19934;-67
2023/01/03 13:52:55;;;;;;;;;;;;;;;2.08;96.17;98369.97;4954114;28;19934;-67
2023/01/03 13:55:34;;;;;;;;;;;;;;;2.03;96.23;98365.34;4953840;28;20300;-67